Time;durP1;ratioP1;P1;durP2;ratioP2;P2;SDS_P1;SDS_P2;PMS_P1;PMS_P2;Temp;Humidity;BMP_temperature;BMP_pressure;BME280_temperature;BME280_humidity;BME280_pressure;Samples;Min_cycle;Max_cycle;Signal;HPM_P1;HPM_P2
2023/12/27 00:01:50;;;;;;;12.02;4.80;;;;;;;-142.57;100.00;56357.75;4952200;28;20043;-86
2023/12/27 00:04:18;;;;;;;6.78;3.72;;;;;;;-142.57;100.00;56375.94;4953124;28;20074;-86
2023/12/27 00:06:44;;;;;;;11.40;4.00;;;;;;;-142.57;100.00;56392.09;4956995;29;20035;-84
2023/12/27 00:09:10;;;;;;;6.28;3.47;;;;;;;-142.57;100.00;56335.53;4943736;28;20467;-83
2023/12/27 00:11:36;;;;;;;12.13;4.93;;;;;;;-142.57;100.00;56319.34;4940105;29;20042;-81
2023/12/27 00:14:02;;;;;;;9.60;3.90;;;;;;;-142.57;100.00;56291.06;4940868;29;20031;-84
2023/12/27 00:16:29;;;;;;;9.73;4.25;;;;;;;-142.57;100.00;56347.66;4956456;29;20047;-84
2023/12/27 00:18:55;;;;;;;10.32;4.53;;;;;;;-142.57;100.00;56337.53;4955884;29;20039;-82
2023/12/27 00:21:21;;;;;;;8.05;4.22;;;;;;;-142.57;100.00;56323.41;4953581;28;20056;-84
2023/12/27 00:23:46;;;;;;;13.07;4.18;;;;;;;-142.57;100.00;56319.34;4939190;29;20035;-84
2023/12/27 00:26:12;;;;;;;5.75;4.15;;;;;;;-142.57;100.00;56339.56;4956696;29;20407;-86
2023/12/27 00:28:38;;;;;;;12.32;4.88;;;;;;;-142.57;100.00;56377.97;4952769;28;20042;-84
2023/12/27 00:31:03;;;;;;;11.68;4.45;;;;;;;-142.57;100.00;56396.16;4946854;29;20043;-85
2023/12/27 00:33:29;;;;;;;12.43;4.10;;;;;;;-142.57;100.00;56361.78;4946699;29;20031;-86
2023/12/27 00:35:54;;;;;;;14.25;4.82;;;;;;;-142.57;100.00;56359.78;4948138;29;20043;-82
2023/12/27 00:38:20;;;;;;;12.48;4.75;;;;;;;-142.57;100.00;56363.81;4938545;29;20055;-83
2023/12/27 00:40:45;;;;;;;10.30;5.13;;;;;;;-142.57;100.00;56400.19;4938961;29;20039;-84
2023/12/27 00:43:11;;;;;;;11.73;4.65;;;;;;;-142.57;100.00;56438.59;4938271;29;20490;-85
2023/12/27 00:45:36;;;;;;;12.75;4.20;;;;;;;-142.57;100.00;56424.44;4938938;29;20118;-81
2023/12/27 00:48:02;;;;;;;13.55;5.18;;;;;;;-142.57;100.00;56384.03;4946872;29;20450;-84
2023/12/27 00:50:27;;;;;;;12.52;5.38;;;;;;;-142.57;100.00;56466.88;4947442;28;20032;-81
2023/12/27 00:52:53;;;;;;;12.60;5.03;;;;;;;-142.57;100.00;56420.41;4959431;28;20062;-84
2023/12/27 00:55:18;;;;;;;11.23;4.68;;;;;;;-142.57;100.00;56456.78;4946378;28;20058;-82
2023/12/27 00:57:44;;;;;;;9.70;4.88;;;;;;;-142.57;100.00;56428.47;4945105;29;20485;-82
2023/12/27 01:00:10;;;;;;;12.07;5.15;;;;;;;-142.57;100.00;56430.50;4958381;29;20130;-84
2023/12/27 01:02:36;;;;;;;11.77;4.72;;;;;;;-142.57;100.00;56440.59;4945295;28;20036;-81
2023/12/27 01:05:02;;;;;;;18.02;5.53;;;;;;;-142.57;100.00;56386.03;4953287;29;20038;-85
2023/12/27 01:07:28;;;;;;;24.35;12.38;;;;;;;-142.57;100.00;56422.41;4939019;29;20027;-80
2023/12/27 01:09:53;;;;;;;14.43;5.70;;;;;;;-142.57;100.00;56412.31;4938034;29;20031;-84
2023/12/27 01:12:19;;;;;;;17.92;7.95;;;;;;;-142.57;100.00;56367.84;4941412;29;20571;-83
2023/12/27 01:14:45;;;;;;;18.02;7.28;;;;;;;-142.57;100.00;56375.94;4936729;29;20107;-85
2023/12/27 01:17:11;;;;;;;17.45;7.82;;;;;;;-142.57;100.00;56406.25;4943105;29;20036;-84
2023/12/27 01:19:37;;;;;;;12.73;6.38;;;;;;;-142.57;100.00;56418.38;4940744;29;20032;-81
2023/12/27 01:22:03;;;;;;;22.15;9.75;;;;;;;-142.57;100.00;56400.19;4936900;29;20042;-83
2023/12/27 01:24:28;;;;;;;17.75;8.23;;;;;;;-142.57;100.00;56400.19;4949928;29;20035;-81
2023/12/27 01:26:53;;;;;;;25.20;9.13;;;;;;;-142.57;100.00;56497.19;4942540;29;20051;-82
2023/12/27 01:29:19;;;;;;;13.95;5.55;;;;;;;-142.57;100.00;56418.38;4946235;29;20043;-82
2023/12/27 01:31:44;;;;;;;11.70;5.72;;;;;;;-142.57;100.00;56349.66;4944076;29;20031;-84
2023/12/27 01:34:10;;;;;;;16.77;7.32;;;;;;;-142.57;100.00;56319.34;4954534;28;20039;-80
2023/12/27 01:36:35;;;;;;;16.25;5.85;;;;;;;-142.57;100.00;56315.31;4944625;29;20043;-81
2023/12/27 01:39:01;;;;;;;17.67;8.88;;;;;;;-142.57;100.00;56307.22;4954324;28;20432;-83
2023/12/27 01:41:26;;;;;;;19.75;8.25;;;;;;;-142.57;100.00;56373.91;4947943;29;20075;-79
2023/12/27 01:43:52;;;;;;;17.15;8.10;;;;;;;-142.57;100.00;56396.16;4938515;29;20039;-81
2023/12/27 01:46:18;;;;;;;11.30;4.97;;;;;;;-142.57;100.00;56379.97;4955132;28;20043;-82
2023/12/27 01:48:44;;;;;;;14.45;4.55;;;;;;;-142.57;100.00;56256.72;4944443;28;20448;-85
2023/12/27 01:51:14;;;;;;;16.58;6.80;;;;;;;-142.57;100.00;56291.06;4951060;29;20388;-83
2023/12/27 01:53:40;;;;;;;19.25;7.07;;;;;;;-142.57;100.00;56289.03;4939730;29;20023;-77
2023/12/27 01:56:07;;;;;;;19.58;7.85;;;;;;;-142.57;100.00;56266.81;4949677;28;20494;-82
2023/12/27 01:58:34;;;;;;;21.05;6.85;;;;;;;-142.57;100.00;56240.53;4943966;28;20036;-82
2023/12/27 02:00:59;;;;;;;9.05;4.97;;;;;;;-142.57;100.00;56272.88;4937850;29;20051;-77
2023/12/27 02:03:25;;;;;;;11.23;4.75;;;;;;;-142.57;100.00;56262.78;4942400;29;20043;-80
2023/12/27 02:05:53;;;;;;;12.40;4.88;;;;;;;-142.57;100.00;56218.31;4938984;29;20032;-76
2023/12/27 02:08:19;;;;;;;8.85;4.43;;;;;;;-142.57;100.00;56232.47;4948364;29;20041;-82
2023/12/27 02:10:48;;;;;;;16.48;5.35;;;;;;;-142.57;100.00;56254.69;4937725;29;20506;-80
2023/12/27 02:13:14;;;;;;;9.68;4.30;;;;;;;-142.57;100.00;56282.97;4944679;29;20028;-77
2023/12/27 02:15:41;;;;;;;9.77;5.00;;;;;;;-142.57;100.00;56287.03;4939085;29;20495;-81
2023/12/27 02:18:08;;;;;;;10.82;5.25;;;;;;;-142.57;100.00;56291.06;4949049;29;20090;-80
2023/12/27 02:20:34;;;;;;;8.50;4.65;;;;;;;-142.57;100.00;56258.72;4940557;29;20036;-83
2023/12/27 02:23:03;;;;;;;10.95;4.50;;;;;;;-142.57;100.00;56200.13;4942966;29;20545;-79
2023/12/27 02:25:29;;;;;;;14.23;5.05;;;;;;;-142.57;100.00;56198.09;4955204;28;20035;-84
2023/12/27 02:27:55;;;;;;;10.48;4.55;;;;;;;-142.57;100.00;56194.06;4940156;28;20122;-86
2023/12/27 02:30:22;;;;;;;14.45;4.97;;;;;;;-142.57;100.00;56224.38;4948678;29;20118;-82
2023/12/27 02:32:49;;;;;;;8.82;4.85;;;;;;;-142.57;100.00;56236.50;4957942;28;20058;-85
2023/12/27 02:35:15;;;;;;;9.55;4.22;;;;;;;-142.57;100.00;56236.50;4941680;28;20396;-84
2023/12/27 02:37:41;;;;;;;19.15;7.78;;;;;;;-142.57;100.00;56287.03;4953700;28;20038;-78
2023/12/27 02:40:08;;;;;;;8.73;4.13;;;;;;;-142.57;100.00;56242.56;4938685;28;20039;-78
2023/12/27 02:42:34;;;;;;;9.90;4.78;;;;;;;-142.57;100.00;56214.28;4934584;29;20028;-79
2023/12/27 02:45:00;;;;;;;9.32;4.75;;;;;;;-142.57;100.00;56238.53;4938789;29;20046;-76
2023/12/27 02:47:25;;;;;;;10.40;5.18;;;;;;;-142.57;100.00;56256.72;4947473;29;20044;-83
2023/12/27 02:49:51;;;;;;;12.40;5.88;;;;;;;-142.57;100.00;56282.97;4936528;29;20557;-75
2023/12/27 02:52:16;;;;;;;12.23;5.45;;;;;;;-142.57;100.00;56351.69;4934563;29;20094;-75
2023/12/27 02:54:42;;;;;;;16.75;5.80;;;;;;;-142.57;100.00;56396.16;4941776;29;20598;-77
2023/12/27 02:57:07;;;;;;;9.35;5.50;;;;;;;-142.57;100.00;56367.84;4943561;29;20035;-83
2023/12/27 02:59:33;;;;;;;13.88;6.43;;;;;;;-142.57;100.00;56317.34;4952302;29;20494;-77
2023/12/27 03:01:59;;;;;;;15.77;7.10;;;;;;;-142.57;100.00;56363.81;4950433;28;20040;-81
2023/12/27 03:04:24;;;;;;;14.77;6.00;;;;;;;-142.57;100.00;56379.97;4935630;29;20083;-76
2023/12/27 03:06:50;;;;;;;15.13;6.13;;;;;;;-142.57;100.00;56430.50;4938171;29;20034;-79
2023/12/27 03:09:16;;;;;;;11.10;6.05;;;;;;;-142.57;100.00;56442.63;4946021;29;20127;-77
2023/12/27 03:11:41;;;;;;;12.45;6.30;;;;;;;-142.57;100.00;56464.84;4949122;29;20236;-76
2023/12/27 03:14:07;;;;;;;13.07;6.53;;;;;;;-142.57;100.00;56477.00;4957493;29;20102;-76
2023/12/27 03:16:33;;;;;;;13.15;6.10;;;;;;;-142.57;100.00;56493.16;4952665;28;20046;-77
2023/12/27 03:18:59;;;;;;;14.77;6.63;;;;;;;-142.57;100.00;56462.84;4951303;28;20121;-76
2023/12/27 03:21:26;;;;;;;15.07;7.13;;;;;;;-142.57;100.00;56477.00;4947859;29;20402;-77
2023/12/27 03:23:52;;;;;;;14.40;5.97;;;;;;;-142.57;100.00;56458.81;4938175;29;20123;-80
2023/12/27 03:26:17;;;;;;;17.70;6.15;;;;;;;-142.57;100.00;56444.66;4941468;29;20047;-80
2023/12/27 03:28:44;;;;;;;12.60;5.85;;;;;;;-142.57;100.00;56456.78;4956314;28;20435;-78
2023/12/27 03:31:09;;;;;;;9.95;5.32;;;;;;;-142.57;100.00;56464.84;4958552;28;20039;-83
2023/12/27 03:33:36;;;;;;;12.50;5.63;;;;;;;-142.57;100.00;56432.53;4944889;28;20082;-82
2023/12/27 03:36:02;;;;;;;12.25;5.45;;;;;;;-142.57;100.00;56408.28;4944793;29;20032;-80
2023/12/27 03:38:28;;;;;;;11.45;5.22;;;;;;;-142.57;100.00;56331.47;4945521;29;20036;-82
2023/12/27 03:40:54;;;;;;;14.98;5.38;;;;;;;-142.57;100.00;56414.34;4952568;29;20023;-77
2023/12/27 03:43:20;;;;;;;9.98;4.75;;;;;;;-142.57;100.00;56343.59;4948069;29;20404;-81
2023/12/27 03:45:45;;;;;;;9.85;4.57;;;;;;;-142.57;100.00;56331.47;4957909;28;20478;-82
2023/12/27 03:48:11;;;;;;;8.02;4.10;;;;;;;-142.57;100.00;56299.16;4945983;29;20103;-80
2023/12/27 03:50:37;;;;;;;8.93;4.45;;;;;;;-142.57;100.00;56357.75;4949456;28;20047;-80
2023/12/27 03:53:04;;;;;;;11.95;4.50;;;;;;;-142.57;100.00;56379.97;4960012;29;20035;-78
2023/12/27 03:55:30;;;;;;;11.45;3.95;;;;;;;-142.57;100.00;56388.06;4954077;28;20031;-76
2023/12/27 03:57:55;;;;;;;5.75;3.50;;;;;;;-142.57;100.00;56402.22;4959445;29;20036;-80
2023/12/27 04:00:21;;;;;;;6.85;3.28;;;;;;;-142.57;100.00;56359.78;4949407;29;20107;-76
2023/12/27 04:02:47;;;;;;;6.43;3.78;;;;;;;-142.57;100.00;56287.03;4954078;29;20134;-84
2023/12/27 04:05:13;;;;;;;16.15;4.07;;;;;;;-142.57;100.00;56295.09;4945725;28;20034;-78
2023/12/27 04:07:39;;;;;;;9.55;3.63;;;;;;;-142.57;100.00;56297.13;4949139;29;20078;-83
2023/12/27 04:10:06;;;;;;;8.38;3.20;;;;;;;-142.57;100.00;56307.22;4956423;29;20470;-82
2023/12/27 04:12:31;;;;;;;7.70;3.72;;;;;;;-142.57;100.00;56373.91;4942128;28;20039;-79
2023/12/27 04:14:57;;;;;;;12.52;4.50;;;;;;;-142.57;100.00;56331.47;4942526;29;20035;-81
2023/12/27 04:17:23;;;;;;;7.63;3.78;;;;;;;-142.57;100.00;56345.63;4938790;28;20043;-81
2023/12/27 04:19:48;;;;;;;5.95;3.85;;;;;;;-142.57;100.00;56297.13;4946063;29;20027;-79
2023/12/27 04:22:14;;;;;;;6.25;3.58;;;;;;;-142.57;100.00;56325.41;4949911;29;20418;-83
2023/12/27 04:24:39;;;;;;;8.27;3.78;;;;;;;-142.57;100.00;56363.81;4942061;29;20058;-77
2023/12/27 04:27:05;;;;;;;8.55;3.72;;;;;;;-142.57;100.00;56303.19;4937831;29;20055;-79
2023/12/27 04:29:31;;;;;;;10.70;3.75;;;;;;;-142.57;100.00;56299.16;4941019;29;20039;-79
2023/12/27 04:31:56;;;;;;;14.40;4.78;;;;;;;-142.57;100.00;56309.25;4954733;28;20094;-79
2023/12/27 04:34:22;;;;;;;10.73;4.60;;;;;;;-142.57;100.00;56303.19;4938162;29;20046;-82
2023/12/27 04:36:48;;;;;;;6.63;4.20;;;;;;;-142.57;100.00;56329.47;4937873;29;20048;-79
2023/12/27 04:39:14;;;;;;;10.38;4.20;;;;;;;-142.57;100.00;56274.91;4943164;29;20038;-79
2023/12/27 04:41:40;;;;;;;9.50;4.65;;;;;;;-142.57;100.00;56270.84;4941849;29;20407;-78
2023/12/27 04:44:05;;;;;;;6.55;3.78;;;;;;;-142.57;100.00;56311.28;4943107;29;20061;-85
2023/12/27 04:46:31;;;;;;;10.57;4.88;;;;;;;-142.57;100.00;56226.41;4951592;29;20035;-80
2023/12/27 04:48:57;;;;;;;12.20;5.28;;;;;;;-142.57;100.00;56246.59;4948801;29;20044;-81
2023/12/27 04:51:22;;;;;;;9.52;4.32;;;;;;;-142.57;100.00;56266.81;4939685;29;20046;-76
2023/12/27 04:53:49;;;;;;;11.70;4.93;;;;;;;-142.57;100.00;56246.59;4949377;29;20062;-79
2023/12/27 04:56:18;;;;;;;12.88;4.57;;;;;;;-142.57;100.00;56280.97;4946077;29;20031;-76
2023/12/27 04:58:44;;;;;;;20.38;5.10;;;;;;;-142.57;100.00;56250.66;4948358;29;20051;-81
2023/12/27 05:01:10;;;;;;;8.88;4.60;;;;;;;-142.57;100.00;56291.06;4962564;29;20101;-77
2023/12/27 05:03:38;;;;;;;12.75;5.20;;;;;;;-142.57;100.00;56287.03;4968181;29;20117;-78
2023/12/27 05:06:11;;;;;;;9.05;4.95;;;;;;;-142.57;100.00;56295.09;4951031;29;20043;-77
2023/12/27 05:08:41;;;;;;;8.88;4.20;;;;;;;-142.57;100.00;56299.16;4955758;29;20062;-77
2023/12/27 05:11:19;;;;;;;7.45;4.70;;;;;;;-142.57;100.00;56280.97;4956879;28;20131;-78
2023/12/27 05:13:45;;;;;;;8.27;4.20;;;;;;;-142.57;100.00;56266.81;4960163;28;20067;-78
2023/12/27 05:16:12;;;;;;;10.07;4.60;;;;;;;-142.57;100.00;56299.16;4953381;29;20036;-77
2023/12/27 05:18:39;;;;;;;12.73;4.80;;;;;;;-142.57;100.00;56258.72;4953358;29;20020;-79
2023/12/27 05:21:06;;;;;;;10.68;4.28;;;;;;;-142.57;100.00;56246.59;4950192;29;20130;-76
2023/12/27 05:23:32;;;;;;;15.00;4.78;;;;;;;-142.57;100.00;56252.66;4951498;29;20031;-83
2023/12/27 05:25:57;;;;;;;10.75;5.18;;;;;;;-142.57;100.00;56266.81;4946642;29;20107;-77
2023/12/27 05:28:23;;;;;;;11.60;5.20;;;;;;;-142.57;100.00;56287.03;4956752;29;20407;-82
2023/12/27 05:30:49;;;;;;;12.60;5.93;;;;;;;-142.57;100.00;56293.09;4953660;29;20114;-80
2023/12/27 05:33:14;;;;;;;13.65;6.30;;;;;;;-142.57;100.00;56321.38;4948619;29;20043;-84
2023/12/27 05:35:40;;;;;;;15.90;6.95;;;;;;;-142.57;100.00;56287.03;4947558;29;20127;-83
2023/12/27 05:38:06;;;;;;;14.77;6.75;;;;;;;-142.57;100.00;56268.84;4947333;28;20038;-83
2023/12/27 05:40:31;;;;;;;13.73;6.72;;;;;;;-142.57;100.00;56268.84;4944450;29;20098;-80
2023/12/27 05:42:57;;;;;;;14.85;6.85;;;;;;;-142.57;100.00;56274.91;4948294;29;20099;-80
2023/12/27 05:45:22;;;;;;;13.63;6.30;;;;;;;-142.57;100.00;56278.94;4944521;29;20435;-84
2023/12/27 05:47:48;;;;;;;15.88;6.40;;;;;;;-142.57;100.00;56307.22;4953493;29;20031;-81
2023/12/27 05:50:15;;;;;;;12.82;6.10;;;;;;;-142.57;100.00;56367.84;4946032;28;20031;-83
2023/12/27 05:52:40;;;;;;;10.45;5.38;;;;;;;-142.57;100.00;56347.66;4938041;29;20091;-81
2023/12/27 05:55:06;;;;;;;10.77;4.20;;;;;;;-142.57;100.00;56256.72;4942943;29;20039;-82
2023/12/27 05:57:32;;;;;;;8.90;3.90;;;;;;;-142.57;100.00;56242.56;4936995;29;20035;-80
2023/12/27 05:59:57;;;;;;;10.45;4.22;;;;;;;-142.57;100.00;56278.94;4938780;29;20051;-81
2023/12/27 06:02:23;;;;;;;9.02;4.53;;;;;;;-142.57;100.00;56307.22;4937057;29;20036;-83
2023/12/27 06:04:48;;;;;;;11.38;6.30;;;;;;;-142.57;100.00;56303.19;4943847;29;20035;-81
2023/12/27 06:07:14;;;;;;;13.57;5.78;;;;;;;-142.57;100.00;56276.91;4946535;29;20078;-82
2023/12/27 06:09:40;;;;;;;8.40;4.25;;;;;;;-142.57;100.00;56299.16;4950995;29;20074;-80
2023/12/27 06:12:09;;;;;;;10.35;4.50;;;;;;;-142.57;100.00;56315.31;4947041;28;20483;-80
2023/12/27 06:14:35;;;;;;;9.68;4.95;;;;;;;-142.57;100.00;56305.22;4950869;29;20032;-85
2023/12/27 06:17:01;;;;;;;10.85;4.18;;;;;;;-142.57;100.00;56335.53;4943546;28;20035;-79
2023/12/27 06:19:35;;;;;;;12.20;4.03;;;;;;;-142.57;100.00;56311.28;4947560;29;20032;-79
2023/12/27 06:22:01;;;;;;;10.27;4.70;;;;;;;-142.57;100.00;56335.53;4949929;29;20039;-83
2023/12/27 06:24:26;;;;;;;10.13;4.50;;;;;;;-142.57;100.00;56363.81;4960484;28;20034;-82
2023/12/27 06:26:52;;;;;;;14.18;4.65;;;;;;;-142.57;100.00;56400.19;4957364;29;20075;-77
2023/12/27 06:29:18;;;;;;;11.93;3.67;;;;;;;-142.57;100.00;56416.34;4968272;28;20055;-77
2023/12/27 06:31:43;;;;;;;15.13;4.40;;;;;;;-142.57;100.00;56367.84;4950378;29;20039;-82
2023/12/27 06:34:09;;;;;;;12.05;4.35;;;;;;;-142.57;100.00;56367.84;4942319;29;20031;-82
2023/12/27 06:36:34;;;;;;;12.98;4.15;;;;;;;-142.57;100.00;56396.16;4950927;29;20371;-80
2023/12/27 06:39:00;;;;;;;10.07;4.20;;;;;;;-142.57;100.00;56361.78;4942161;29;20483;-78
2023/12/27 06:41:27;;;;;;;15.70;5.50;;;;;;;-142.57;100.00;56379.97;4937537;29;20035;-79
2023/12/27 06:43:53;;;;;;;18.75;8.57;;;;;;;-142.57;100.00;56384.03;4967893;28;20027;-79
2023/12/27 06:46:19;;;;;;;18.88;7.72;;;;;;;-142.57;100.00;56396.16;4973510;28;20062;-79
2023/12/27 06:48:44;;;;;;;24.00;8.00;;;;;;;-142.57;100.00;56384.03;4959834;29;20044;-85
2023/12/27 06:51:12;;;;;;;26.95;14.68;;;;;;;-142.57;100.00;56396.16;4961632;29;20028;-76
2023/12/27 06:53:37;;;;;;;65.65;17.60;;;;;;;-142.57;100.00;56472.94;4944724;29;20119;-83
2023/12/27 06:56:03;;;;;;;33.92;8.93;;;;;;;-142.57;100.00;56424.44;4936344;29;20114;-79
2023/12/27 06:58:28;;;;;;;58.65;14.30;;;;;;;-142.57;100.00;56422.41;4935789;29;20028;-78
2023/12/27 07:00:54;;;;;;;59.35;13.05;;;;;;;-142.57;100.00;56464.84;4949999;28;20039;-81
2023/12/27 07:03:20;;;;;;;39.95;10.65;;;;;;;-142.57;100.00;56436.56;4945059;29;20146;-82
2023/12/27 07:05:45;;;;;;;36.45;9.55;;;;;;;-142.57;100.00;56454.75;4943203;29;20043;-80
2023/12/27 07:08:11;;;;;;;26.17;6.55;;;;;;;-142.57;100.00;56440.59;4943897;29;20060;-83
2023/12/27 07:10:36;;;;;;;27.73;6.18;;;;;;;-142.57;100.00;56479.00;4950271;29;20039;-80
2023/12/27 07:13:02;;;;;;;44.88;8.38;;;;;;;-142.57;100.00;56440.59;4941122;29;20035;-82
2023/12/27 07:15:29;;;;;;;18.95;5.90;;;;;;;-142.57;100.00;56416.34;4950944;29;20028;-80
2023/12/27 07:17:55;;;;;;;13.80;4.75;;;;;;;-142.57;100.00;56382.00;4942105;29;20048;-79
2023/12/27 07:20:21;;;;;;;40.22;14.18;;;;;;;-142.57;100.00;56379.97;4956704;29;20086;-81
2023/12/27 07:22:47;;;;;;;42.53;15.80;;;;;;;-142.57;100.00;56400.19;4942361;29;20095;-82
2023/12/27 07:25:12;;;;;;;31.25;12.85;;;;;;;-142.57;100.00;56384.03;4946052;28;20079;-80
2023/12/27 07:27:38;;;;;;;67.78;30.13;;;;;;;-142.57;100.00;56519.44;4944854;29;20173;-83
2023/12/27 07:30:05;;;;;;;62.22;20.35;;;;;;;-142.57;100.00;56739.72;4939780;29;20031;-79
2023/12/27 07:32:30;;;;;;;19.55;7.80;;;;;;;-142.57;100.00;56784.19;4936533;28;20035;-80
2023/12/27 07:34:57;;;;;;;34.00;7.70;;;;;;;-142.57;100.00;56776.09;4934743;29;20039;-79
2023/12/27 07:37:29;;;;;;;14.82;6.38;;;;;;;-142.57;100.00;56794.28;4937775;29;20125;-80
2023/12/27 07:39:55;;;;;;;32.90;15.93;;;;;;;-142.57;100.00;56715.47;4936966;29;20039;-82
2023/12/27 07:42:20;;;;;;;14.73;5.53;;;;;;;-142.57;100.00;56586.13;4934905;29;20034;-80
2023/12/27 07:44:46;;;;;;;20.02;6.05;;;;;;;-142.57;100.00;56529.53;4935308;29;20092;-80
2023/12/27 07:47:12;;;;;;;29.05;8.45;;;;;;;-142.57;100.00;56460.81;4937209;28;20035;-78
2023/12/27 07:49:37;;;;;;;19.17;6.80;;;;;;;-142.57;100.00;56489.13;4936824;29;20077;-78
2023/12/27 07:52:03;;;;;;;25.70;11.80;;;;;;;-142.57;100.00;56460.81;4937195;29;20391;-81
2023/12/27 07:54:31;;;;;;;63.70;30.98;;;;;;;-142.57;100.00;56521.44;4940207;29;20031;-79
2023/12/27 07:56:56;;;;;;;25.13;12.90;;;;;;;-142.57;100.00;56565.91;4946527;29;20036;-80
2023/12/27 07:59:23;;;;;;;107.93;44.00;;;;;;;-142.57;100.00;56557.81;4940409;28;20414;-81
2023/12/27 08:01:48;;;;;;;65.60;21.33;;;;;;;-142.57;100.00;56790.25;4952284;28;20046;-80
2023/12/27 08:04:14;;;;;;;25.92;11.35;;;;;;;-142.57;100.00;56768.00;4945098;28;20091;-81
2023/12/27 08:06:39;;;;;;;54.90;17.88;;;;;;;-142.57;100.00;56634.63;4942076;29;20356;-82
2023/12/27 08:09:05;;;;;;;10.45;5.97;;;;;;;-142.57;100.00;56652.81;4942681;28;20038;-83
2023/12/27 08:11:30;;;;;;;37.28;8.30;;;;;;;-142.57;100.00;56610.38;4942938;29;20122;-78
2023/12/27 08:13:56;;;;;;;41.63;13.48;;;;;;;-142.57;100.00;56695.25;4948721;29;20045;-78
2023/12/27 08:16:22;;;;;;;46.10;11.00;;;;;;;-142.57;100.00;56689.19;4939007;28;20049;-80
2023/12/27 08:18:47;;;;;;;261.83;26.52;;;;;;;-142.57;100.00;56711.41;4942518;29;20050;-80
2023/12/27 08:21:13;;;;;;;141.43;17.40;;;;;;;-142.57;100.00;56869.06;4951004;29;20031;-84
2023/12/27 08:23:39;;;;;;;50.83;8.13;;;;;;;-142.57;100.00;56889.28;4940733;29;20099;-83
2023/12/27 08:26:07;;;;;;;17.92;6.25;;;;;;;-142.57;100.00;56761.94;4941417;29;20491;-83
2023/12/27 08:28:37;;;;;;;29.60;6.22;;;;;;;-142.57;100.00;56685.16;4948395;29;20039;-80
2023/12/27 08:31:06;;;;;;;18.30;7.10;;;;;;;-142.57;100.00;56662.91;4954916;29;20062;-81
2023/12/27 08:33:32;;;;;;;13.65;6.75;;;;;;;-142.57;100.00;56513.38;4958026;28;20521;-79
2023/12/27 08:36:00;;;;;;;28.15;7.88;;;;;;;-142.57;100.00;56472.94;4958333;28;20081;-77
2023/12/27 08:38:26;;;;;;;20.95;6.93;;;;;;;-142.57;100.00;56432.53;4943502;28;20035;-82
2023/12/27 08:40:52;;;;;;;35.90;7.45;;;;;;;-142.57;100.00;56438.59;4940075;29;20621;-82
2023/12/27 08:43:29;;;;;;;17.15;6.93;;;;;;;-142.57;100.00;56458.81;4942509;29;20023;-81
2023/12/27 08:45:56;;;;;;;23.45;7.35;;;;;;;-142.57;100.00;56493.16;4954113;29;20070;-83
2023/12/27 08:48:21;;;;;;;65.90;9.32;;;;;;;-142.57;100.00;56485.06;4947125;29;20494;-86
2023/12/27 08:50:48;;;;;;;48.33;7.97;;;;;;;-142.57;100.00;56468.91;4944850;29;20048;-83
2023/12/27 08:53:14;;;;;;;20.02;7.22;;;;;;;-142.57;100.00;56497.19;4943586;29;20043;-81
2023/12/27 08:55:40;;;;;;;20.52;6.68;;;;;;;-142.57;100.00;56489.13;4937821;29;20046;-81
2023/12/27 08:58:05;;;;;;;24.30;6.88;;;;;;;-142.57;100.00;56576.00;4936995;29;20035;-81
2023/12/27 09:00:31;;;;;;;16.17;6.75;;;;;;;-142.57;100.00;56477.00;4938693;28;20133;-86
2023/12/27 09:02:56;;;;;;;17.17;6.95;;;;;;;-142.57;100.00;56479.00;4943589;29;20034;-82
2023/12/27 09:05:22;;;;;;;12.20;5.97;;;;;;;-142.57;100.00;56412.31;4947288;28;20544;-83
2023/12/27 09:07:47;;;;;;;15.23;6.75;;;;;;;-142.57;100.00;56428.47;4943270;29;20046;-78
2023/12/27 09:10:13;;;;;;;49.25;16.75;;;;;;;-142.57;100.00;56495.19;4939075;29;20032;-80
2023/12/27 09:12:38;;;;;;;17.67;7.68;;;;;;;-142.57;100.00;56418.38;4941215;29;20036;-87
2023/12/27 09:15:06;;;;;;;17.30;8.30;;;;;;;-142.57;100.00;56466.88;4947098;29;20047;-81
2023/12/27 09:17:32;;;;;;;18.98;8.68;;;;;;;-142.57;100.00;56440.59;4942273;29;20075;-84
2023/12/27 09:19:58;;;;;;;22.17;7.60;;;;;;;-142.57;100.00;56464.84;4938023;28;20063;-80
2023/12/27 09:22:23;;;;;;;25.38;8.25;;;;;;;-142.57;100.00;56466.88;4946846;28;20394;-81
2023/12/27 09:25:13;;;;;;;23.02;9.10;;;;;;;-142.57;100.00;56424.44;4949213;28;20032;-81
2023/12/27 09:27:38;;;;;;;24.35;9.70;;;;;;;-142.57;100.00;56489.13;4946426;29;20407;-83
2023/12/27 09:30:05;;;;;;;19.75;7.63;;;;;;;-142.57;100.00;56509.31;4943627;29;20035;-80
2023/12/27 09:32:30;;;;;;;24.90;7.90;;;;;;;-142.57;100.00;56551.75;4934162;29;20039;-83
2023/12/27 09:34:55;;;;;;;17.98;8.18;;;;;;;-142.57;100.00;56529.53;4945033;29;20046;-83
2023/12/27 09:37:21;;;;;;;41.25;10.07;;;;;;;-142.57;100.00;56543.69;4938414;29;20031;-76
2023/12/27 09:39:47;;;;;;;176.77;17.33;;;;;;;-142.57;100.00;56529.53;4937548;28;20036;-82
2023/12/27 09:42:13;;;;;;;27.35;8.95;;;;;;;-142.57;100.00;56543.69;4943005;29;20051;-81
2023/12/27 09:44:42;;;;;;;28.13;10.57;;;;;;;-142.57;100.00;56618.44;4936323;29;20094;-82
2023/12/27 09:47:10;;;;;;;35.33;12.68;;;;;;;-142.57;100.00;56578.03;4942520;29;20050;-81
2023/12/27 09:49:39;;;;;;;23.73;12.35;;;;;;;-142.57;100.00;56574.00;4935251;28;20158;-82
2023/12/27 09:52:07;;;;;;;28.02;12.65;;;;;;;-142.57;100.00;56561.88;4934920;29;20103;-86
2023/12/27 09:54:32;;;;;;;26.05;12.55;;;;;;;-142.57;100.00;56596.22;4948266;29;20043;-83
2023/12/27 09:56:59;;;;;;;27.60;12.57;;;;;;;-142.57;100.00;56590.16;4934381;29;20043;-78
2023/12/27 09:59:29;;;;;;;19.85;9.43;;;;;;;-142.57;100.00;56626.53;4947293;28;20043;-78
2023/12/27 10:02:02;;;;;;;19.58;10.25;;;;;;;-142.57;100.00;56608.34;4940537;28;20058;-81
2023/12/27 10:04:42;;;;;;;33.75;10.05;;;;;;;-142.57;100.00;56582.06;4944580;29;20151;-82
2023/12/27 10:07:09;;;;;;;23.70;9.80;;;;;;;-142.57;100.00;56557.81;4948966;29;20475;-87
2023/12/27 10:09:38;;;;;;;16.42;8.60;;;;;;;-142.57;100.00;56485.06;4921689;29;20500;-79
2023/12/27 10:12:07;;;;;;;26.73;10.18;;;;;;;-142.57;100.00;56535.59;4938200;29;20094;-82
2023/12/27 10:14:35;;;;;;;25.85;9.77;;;;;;;-142.57;100.00;56549.75;4939215;28;20422;-82
2023/12/27 10:17:02;;;;;;;25.52;9.98;;;;;;;-142.57;100.00;56622.50;4935025;29;20039;-82
2023/12/27 10:19:41;;;;;;;14.93;9.30;;;;;;;-142.57;100.00;56590.16;4937080;29;20028;-85
2023/12/27 10:22:07;;;;;;;19.92;10.35;;;;;;;-142.57;100.00;56638.66;4940618;28;20441;-85
2023/12/27 10:24:37;;;;;;;25.38;10.68;;;;;;;-142.57;100.00;56658.88;4936653;29;20072;-84
2023/12/27 10:27:04;;;;;;;20.52;9.52;;;;;;;-142.57;100.00;56671.00;4937413;29;20045;-83
2023/12/27 10:29:31;;;;;;;19.65;9.00;;;;;;;-142.57;100.00;56677.06;4936532;29;20046;-83
2023/12/27 10:31:58;;;;;;;27.05;10.02;;;;;;;-142.57;100.00;56671.00;4939483;29;20034;-84
2023/12/27 10:34:24;;;;;;;19.27;10.82;;;;;;;-142.57;100.00;56666.97;4946116;28;20036;-82
2023/12/27 10:36:50;;;;;;;18.08;8.80;;;;;;;-142.57;100.00;56691.22;4936232;29;20070;-86
2023/12/27 10:39:18;;;;;;;30.00;11.82;;;;;;;-142.57;100.00;56735.69;4939002;29;20055;-83
2023/12/27 10:41:44;;;;;;;23.27;10.25;;;;;;;-142.57;100.00;56705.34;4949344;29;20031;-91
2023/12/27 10:44:11;;;;;;;23.88;10.73;;;;;;;-142.57;100.00;56679.09;4924236;29;20043;-88
2023/12/27 10:46:40;;;;;;;23.08;10.85;;;;;;;-142.57;100.00;56648.78;4937955;29;20032;-88
2023/12/27 10:49:16;;;;;;;28.92;10.05;;;;;;;-142.57;100.00;56675.03;4956305;29;20470;-87
2023/12/27 10:51:47;;;;;;;18.67;9.70;;;;;;;-142.57;100.00;56749.81;4938183;29;20036;-82
2023/12/27 10:54:13;;;;;;;22.58;10.50;;;;;;;-142.57;100.00;56735.69;4944562;29;20040;-87
2023/12/27 10:56:40;;;;;;;24.52;10.07;;;;;;;-142.57;100.00;56743.75;4944851;29;20027;-82
2023/12/27 10:59:07;;;;;;;21.60;10.95;;;;;;;-142.57;100.00;56705.34;4944245;28;20205;-82